sensor_id;sensor_type;location;lat;lon;timestamp;P1;durP1;ratioP1;P2;durP2;ratioP2
9972;SDS011;5027;53.560;10.062;2022-10-30T00:00:45;19.47;;;13.33;;
9972;SDS011;5027;53.560;10.062;2022-10-30T00:03:12;22.73;;;14.90;;
9972;SDS011;5027;53.560;10.062;2022-10-30T00:05:40;19.90;;;14.07;;
9972;SDS011;5027;53.560;10.062;2022-10-30T00:08:09;17.87;;;12.73;;
9972;SDS011;5027;53.560;10.062;2022-10-30T00:10:36;17.83;;;12.87;;
9972;SDS011;5027;53.560;10.062;2022-10-30T00:13:04;20.67;;;12.60;;
9972;SDS011;5027;53.560;10.062;2022-10-30T00:15:31;23.23;;;13.53;;
9972;SDS011;5027;53.560;10.062;2022-10-30T00:17:58;15.67;;;12.30;;
9972;SDS011;5027;53.560;10.062;2022-10-30T00:20:25;16.77;;;12.50;;
9972;SDS011;5027;53.560;10.062;2022-10-30T00:22:52;19.93;;;12.83;;
9972;SDS011;5027;53.560;10.062;2022-10-30T00:25:19;19.80;;;12.50;;
9972;SDS011;5027;53.560;10.062;2022-10-30T00:27:45;19.73;;;12.87;;
9972;SDS011;5027;53.560;10.062;2022-10-30T00:30:12;21.27;;;14.73;;
9972;SDS011;5027;53.560;10.062;2022-10-30T00:32:40;23.67;;;14.17;;
9972;SDS011;5027;53.560;10.062;2022-10-30T00:35:08;18.00;;;13.13;;
9972;SDS011;5027;53.560;10.062;2022-10-30T00:37:37;18.87;;;12.63;;
9972;SDS011;5027;53.560;10.062;2022-10-30T00:40:04;22.63;;;14.13;;
9972;SDS011;5027;53.560;10.062;2022-10-30T00:42:31;20.83;;;14.53;;
9972;SDS011;5027;53.560;10.062;2022-10-30T00:44:58;24.33;;;14.87;;
9972;SDS011;5027;53.560;10.062;2022-10-30T00:47:26;26.27;;;18.77;;
9972;SDS011;5027;53.560;10.062;2022-10-30T00:50:02;19.43;;;12.57;;
9972;SDS011;5027;53.560;10.062;2022-10-30T00:52:33;15.87;;;11.30;;
9972;SDS011;5027;53.560;10.062;2022-10-30T00:55:04;21.13;;;13.57;;
9972;SDS011;5027;53.560;10.062;2022-10-30T00:57:34;23.93;;;14.30;;
9972;SDS011;5027;53.560;10.062;2022-10-30T01:00:03;20.00;;;13.63;;
9972;SDS011;5027;53.560;10.062;2022-10-30T01:02:31;19.43;;;12.73;;
9972;SDS011;5027;53.560;10.062;2022-10-30T01:04:58;20.97;;;12.87;;
9972;SDS011;5027;53.560;10.062;2022-10-30T01:07:26;20.23;;;11.77;;
9972;SDS011;5027;53.560;10.062;2022-10-30T01:09:54;17.43;;;12.50;;
9972;SDS011;5027;53.560;10.062;2022-10-30T01:12:20;18.77;;;12.50;;
9972;SDS011;5027;53.560;10.062;2022-10-30T01:14:49;22.97;;;12.77;;
9972;SDS011;5027;53.560;10.062;2022-10-30T01:17:30;17.20;;;11.80;;
9972;SDS011;5027;53.560;10.062;2022-10-30T01:26:19;17.63;;;12.23;;
9972;SDS011;5027;53.560;10.062;2022-10-30T01:29:18;15.47;;;11.10;;
9972;SDS011;5027;53.560;10.062;2022-10-30T01:34:36;20.77;;;11.63;;
9972;SDS011;5027;53.560;10.062;2022-10-30T01:37:31;15.03;;;11.33;;
9972;SDS011;5027;53.560;10.062;2022-10-30T01:40:08;16.07;;;11.07;;
9972;SDS011;5027;53.560;10.062;2022-10-30T01:45:26;26.87;;;20.83;;
9972;SDS011;5027;53.560;10.062;2022-10-30T01:50:54;19.00;;;12.10;;
9972;SDS011;5027;53.560;10.062;2022-10-30T01:56:34;20.37;;;11.40;;
9972;SDS011;5027;53.560;10.062;2022-10-30T02:01:49;22.27;;;12.53;;
9972;SDS011;5027;53.560;10.062;2022-10-30T02:04:16;15.53;;;11.53;;
9972;SDS011;5027;53.560;10.062;2022-10-30T02:06:44;16.93;;;11.13;;
9972;SDS011;5027;53.560;10.062;2022-10-30T02:09:10;16.63;;;11.90;;
9972;SDS011;5027;53.560;10.062;2022-10-30T02:11:45;17.47;;;10.67;;
9972;SDS011;5027;53.560;10.062;2022-10-30T02:14:15;17.27;;;11.33;;
9972;SDS011;5027;53.560;10.062;2022-10-30T02:16:47;20.60;;;11.93;;
9972;SDS011;5027;53.560;10.062;2022-10-30T02:19:18;17.87;;;10.93;;
9972;SDS011;5027;53.560;10.062;2022-10-30T02:21:45;21.43;;;11.80;;
9972;SDS011;5027;53.560;10.062;2022-10-30T02:24:11;20.43;;;11.53;;
9972;SDS011;5027;53.560;10.062;2022-10-30T02:26:38;20.07;;;10.50;;
9972;SDS011;5027;53.560;10.062;2022-10-30T02:29:06;14.83;;;10.13;;
9972;SDS011;5027;53.560;10.062;2022-10-30T02:31:32;17.00;;;9.73;;
9972;SDS011;5027;53.560;10.062;2022-10-30T02:33:59;19.80;;;11.33;;
9972;SDS011;5027;53.560;10.062;2022-10-30T02:36:26;14.63;;;10.63;;
9972;SDS011;5027;53.560;10.062;2022-10-30T02:38:53;13.83;;;10.30;;
9972;SDS011;5027;53.560;10.062;2022-10-30T02:41:21;17.20;;;10.27;;
9972;SDS011;5027;53.560;10.062;2022-10-30T02:43:52;20.43;;;11.03;;
9972;SDS011;5027;53.560;10.062;2022-10-30T02:46:18;14.17;;;9.87;;
9972;SDS011;5027;53.560;10.062;2022-10-30T02:48:47;18.60;;;11.07;;
9972;SDS011;5027;53.560;10.062;2022-10-30T02:51:13;18.40;;;10.23;;
9972;SDS011;5027;53.560;10.062;2022-10-30T02:53:41;17.33;;;10.07;;
9972;SDS011;5027;53.560;10.062;2022-10-30T02:56:09;19.47;;;10.10;;
9972;SDS011;5027;53.560;10.062;2022-10-30T02:58:39;16.43;;;9.57;;
9972;SDS011;5027;53.560;10.062;2022-10-30T03:01:08;21.47;;;10.30;;
9972;SDS011;5027;53.560;10.062;2022-10-30T03:03:36;13.50;;;9.40;;
9972;SDS011;5027;53.560;10.062;2022-10-30T03:06:03;16.67;;;10.40;;
9972;SDS011;5027;53.560;10.062;2022-10-30T03:08:33;18.17;;;10.07;;
9972;SDS011;5027;53.560;10.062;2022-10-30T03:11:05;15.27;;;9.77;;
9972;SDS011;5027;53.560;10.062;2022-10-30T03:13:36;18.70;;;10.20;;
9972;SDS011;5027;53.560;10.062;2022-10-30T03:16:09;18.90;;;9.70;;
9972;SDS011;5027;53.560;10.062;2022-10-30T03:18:37;17.13;;;9.50;;
9972;SDS011;5027;53.560;10.062;2022-10-30T03:21:08;22.53;;;9.50;;
9972;SDS011;5027;53.560;10.062;2022-10-30T03:23:36;13.17;;;9.67;;
9972;SDS011;5027;53.560;10.062;2022-10-30T03:26:03;18.73;;;9.57;;
9972;SDS011;5027;53.560;10.062;2022-10-30T03:28:35;18.07;;;9.70;;
9972;SDS011;5027;53.560;10.062;2022-10-30T03:31:03;13.10;;;9.10;;
9972;SDS011;5027;53.560;10.062;2022-10-30T03:33:38;15.37;;;9.37;;
9972;SDS011;5027;53.560;10.062;2022-10-30T03:36:07;21.43;;;9.70;;
9972;SDS011;5027;53.560;10.062;2022-10-30T03:38:34;18.33;;;9.80;;
9972;SDS011;5027;53.560;10.062;2022-10-30T03:41:01;15.07;;;9.93;;
9972;SDS011;5027;53.560;10.062;2022-10-30T03:43:29;17.33;;;9.67;;
9972;SDS011;5027;53.560;10.062;2022-10-30T03:45:56;14.73;;;8.83;;
9972;SDS011;5027;53.560;10.062;2022-10-30T03:48:23;13.47;;;8.97;;
9972;SDS011;5027;53.560;10.062;2022-10-30T03:50:53;15.80;;;9.87;;
9972;SDS011;5027;53.560;10.062;2022-10-30T03:53:20;14.43;;;9.80;;
9972;SDS011;5027;53.560;10.062;2022-10-30T03:55:49;18.87;;;10.13;;
9972;SDS011;5027;53.560;10.062;2022-10-30T03:58:16;17.57;;;9.40;;
9972;SDS011;5027;53.560;10.062;2022-10-30T04:00:44;15.70;;;9.50;;
9972;SDS011;5027;53.560;10.062;2022-10-30T04:03:11;16.47;;;8.97;;
9972;SDS011;5027;53.560;10.062;2022-10-30T04:05:40;14.60;;;9.13;;
9972;SDS011;5027;53.560;10.062;2022-10-30T04:08:10;15.03;;;8.30;;
9972;SDS011;5027;53.560;10.062;2022-10-30T04:10:42;13.90;;;8.80;;
9972;SDS011;5027;53.560;10.062;2022-10-30T04:13:11;16.13;;;9.33;;
9972;SDS011;5027;53.560;10.062;2022-10-30T04:15:47;19.83;;;9.23;;
9972;SDS011;5027;53.560;10.062;2022-10-30T04:18:22;15.90;;;9.30;;
9972;SDS011;5027;53.560;10.062;2022-10-30T04:20:49;14.83;;;9.17;;
9972;SDS011;5027;53.560;10.062;2022-10-30T04:23:17;14.83;;;8.97;;
9972;SDS011;5027;53.560;10.062;2022-10-30T04:25:46;12.20;;;8.33;;
9972;SDS011;5027;53.560;10.062;2022-10-30T04:28:13;16.67;;;8.57;;
9972;SDS011;5027;53.560;10.062;2022-10-30T04:30:41;13.17;;;8.73;;
9972;SDS011;5027;53.560;10.062;2022-10-30T04:33:11;15.70;;;9.57;;
9972;SDS011;5027;53.560;10.062;2022-10-30T04:35:39;17.40;;;9.50;;
9972;SDS011;5027;53.560;10.062;2022-10-30T04:38:11;16.63;;;9.10;;
9972;SDS011;5027;53.560;10.062;2022-10-30T04:40:42;15.20;;;9.03;;
9972;SDS011;5027;53.560;10.062;2022-10-30T04:43:10;17.50;;;9.37;;
9972;SDS011;5027;53.560;10.062;2022-10-30T04:45:38;14.80;;;9.30;;
9972;SDS011;5027;53.560;10.062;2022-10-30T04:48:10;14.03;;;9.07;;
9972;SDS011;5027;53.560;10.062;2022-10-30T04:50:39;14.93;;;8.77;;
9972;SDS011;5027;53.560;10.062;2022-10-30T04:53:07;14.87;;;8.60;;
9972;SDS011;5027;53.560;10.062;2022-10-30T04:55:37;12.23;;;9.20;;
9972;SDS011;5027;53.560;10.062;2022-10-30T04:58:04;14.73;;;9.17;;
9972;SDS011;5027;53.560;10.062;2022-10-30T05:00:35;17.83;;;9.60;;
9972;SDS011;5027;53.560;10.062;2022-10-30T05:03:19;13.60;;;10.13;;
9972;SDS011;5027;53.560;10.062;2022-10-30T05:05:54;15.00;;;10.23;;
9972;SDS011;5027;53.560;10.062;2022-10-30T05:08:26;16.63;;;10.27;;
9972;SDS011;5027;53.560;10.062;2022-10-30T05:10:53;16.43;;;8.83;;
9972;SDS011;5027;53.560;10.062;2022-10-30T05:13:21;16.83;;;9.03;;
9972;SDS011;5027;53.560;10.062;2022-10-30T05:15:48;13.40;;;8.43;;
9972;SDS011;5027;53.560;10.062;2022-10-30T05:18:15;14.43;;;8.23;;
9972;SDS011;5027;53.560;10.062;2022-10-30T05:20:42;16.17;;;8.60;;
9972;SDS011;5027;53.560;10.062;2022-10-30T05:23:11;16.03;;;8.30;;
9972;SDS011;5027;53.560;10.062;2022-10-30T05:25:38;16.13;;;8.53;;
9972;SDS011;5027;53.560;10.062;2022-10-30T05:28:08;12.30;;;8.73;;
9972;SDS011;5027;53.560;10.062;2022-10-30T05:30:44;11.67;;;8.50;;
9972;SDS011;5027;53.560;10.062;2022-10-30T05:33:27;11.97;;;7.90;;
9972;SDS011;5027;53.560;10.062;2022-10-30T05:35:53;14.77;;;8.67;;
9972;SDS011;5027;53.560;10.062;2022-10-30T05:38:20;14.77;;;8.30;;
9972;SDS011;5027;53.560;10.062;2022-10-30T05:40:49;12.90;;;8.60;;
9972;SDS011;5027;53.560;10.062;2022-10-30T05:43:15;18.13;;;8.60;;
9972;SDS011;5027;53.560;10.062;2022-10-30T05:45:42;17.40;;;9.43;;
9972;SDS011;5027;53.560;10.062;2022-10-30T05:48:09;12.13;;;8.30;;
9972;SDS011;5027;53.560;10.062;2022-10-30T05:50:41;14.20;;;8.87;;
9972;SDS011;5027;53.560;10.062;2022-10-30T05:53:28;12.40;;;8.17;;
9972;SDS011;5027;53.560;10.062;2022-10-30T05:55:56;15.47;;;8.97;;
9972;SDS011;5027;53.560;10.062;2022-10-30T05:58:28;17.83;;;8.63;;
9972;SDS011;5027;53.560;10.062;2022-10-30T06:00:57;16.93;;;8.87;;
9972;SDS011;5027;53.560;10.062;2022-10-30T06:03:37;15.20;;;8.53;;
9972;SDS011;5027;53.560;10.062;2022-10-30T06:06:04;14.87;;;9.03;;
9972;SDS011;5027;53.560;10.062;2022-10-30T06:08:31;15.90;;;8.10;;
9972;SDS011;5027;53.560;10.062;2022-10-30T06:11:02;15.83;;;8.70;;
9972;SDS011;5027;53.560;10.062;2022-10-30T06:13:38;12.70;;;8.97;;
9972;SDS011;5027;53.560;10.062;2022-10-30T06:16:10;16.40;;;8.73;;
9972;SDS011;5027;53.560;10.062;2022-10-30T06:18:58;11.13;;;8.37;;
9972;SDS011;5027;53.560;10.062;2022-10-30T06:21:27;14.97;;;8.83;;
9972;SDS011;5027;53.560;10.062;2022-10-30T06:24:10;13.67;;;8.87;;
9972;SDS011;5027;53.560;10.062;2022-10-30T06:26:44;15.03;;;8.93;;
9972;SDS011;5027;53.560;10.062;2022-10-30T06:29:12;15.30;;;8.87;;
9972;SDS011;5027;53.560;10.062;2022-10-30T06:31:39;12.43;;;8.40;;
9972;SDS011;5027;53.560;10.062;2022-10-30T06:34:06;14.53;;;9.17;;
9972;SDS011;5027;53.560;10.062;2022-10-30T06:36:35;13.73;;;8.67;;
9972;SDS011;5027;53.560;10.062;2022-10-30T06:39:03;12.13;;;8.20;;
9972;SDS011;5027;53.560;10.062;2022-10-30T06:41:38;13.50;;;8.70;;
9972;SDS011;5027;53.560;10.062;2022-10-30T06:44:30;14.27;;;8.53;;
9972;SDS011;5027;53.560;10.062;2022-10-30T06:46:57;16.07;;;8.60;;
9972;SDS011;5027;53.560;10.062;2022-10-30T06:49:25;15.63;;;8.80;;
9972;SDS011;5027;53.560;10.062;2022-10-30T06:51:52;12.37;;;8.30;;
9972;SDS011;5027;53.560;10.062;2022-10-30T06:54:20;17.30;;;8.63;;
9972;SDS011;5027;53.560;10.062;2022-10-30T06:56:58;15.40;;;8.80;;
9972;SDS011;5027;53.560;10.062;2022-10-30T06:59:51;16.70;;;7.73;;
9972;SDS011;5027;53.560;10.062;2022-10-30T07:02:24;14.57;;;8.33;;
9972;SDS011;5027;53.560;10.062;2022-10-30T07:04:58;14.97;;;8.60;;
9972;SDS011;5027;53.560;10.062;2022-10-30T07:07:24;12.13;;;8.20;;
9972;SDS011;5027;53.560;10.062;2022-10-30T07:09:52;13.03;;;9.17;;
9972;SDS011;5027;53.560;10.062;2022-10-30T07:12:26;18.50;;;9.07;;
9972;SDS011;5027;53.560;10.062;2022-10-30T07:15:09;16.10;;;7.93;;
9972;SDS011;5027;53.560;10.062;2022-10-30T07:17:40;12.47;;;7.80;;
9972;SDS011;5027;53.560;10.062;2022-10-30T07:20:16;15.87;;;8.33;;
9972;SDS011;5027;53.560;10.062;2022-10-30T07:22:42;14.00;;;8.30;;
9972;SDS011;5027;53.560;10.062;2022-10-30T07:25:09;11.67;;;8.00;;
9972;SDS011;5027;53.560;10.062;2022-10-30T07:27:45;11.80;;;8.07;;
9972;SDS011;5027;53.560;10.062;2022-10-30T07:30:31;14.70;;;8.30;;
9972;SDS011;5027;53.560;10.062;2022-10-30T07:33:23;12.57;;;8.97;;
9972;SDS011;5027;53.560;10.062;2022-10-30T07:36:19;14.03;;;8.30;;
9972;SDS011;5027;53.560;10.062;2022-10-30T07:39:12;15.27;;;8.67;;
9972;SDS011;5027;53.560;10.062;2022-10-30T07:42:00;14.67;;;8.10;;
9972;SDS011;5027;53.560;10.062;2022-10-30T07:44:41;10.17;;;8.33;;
9972;SDS011;5027;53.560;10.062;2022-10-30T07:47:13;14.87;;;9.27;;
9972;SDS011;5027;53.560;10.062;2022-10-30T07:50:03;13.23;;;8.57;;
9972;SDS011;5027;53.560;10.062;2022-10-30T07:52:32;16.70;;;8.90;;
9972;SDS011;5027;53.560;10.062;2022-10-30T07:54:59;18.10;;;8.87;;
9972;SDS011;5027;53.560;10.062;2022-10-30T07:57:41;14.13;;;8.47;;
9972;SDS011;5027;53.560;10.062;2022-10-30T08:00:26;13.63;;;9.03;;
9972;SDS011;5027;53.560;10.062;2022-10-30T08:03:02;15.60;;;8.77;;
9972;SDS011;5027;53.560;10.062;2022-10-30T08:05:55;14.17;;;8.50;;
9972;SDS011;5027;53.560;10.062;2022-10-30T08:08:27;21.53;;;9.10;;
9972;SDS011;5027;53.560;10.062;2022-10-30T08:11:05;15.63;;;8.90;;
9972;SDS011;5027;53.560;10.062;2022-10-30T08:13:32;15.87;;;8.80;;
9972;SDS011;5027;53.560;10.062;2022-10-30T08:15:59;15.80;;;7.93;;
9972;SDS011;5027;53.560;10.062;2022-10-30T08:18:25;17.40;;;8.97;;
9972;SDS011;5027;53.560;10.062;2022-10-30T08:20:52;13.40;;;8.27;;
9972;SDS011;5027;53.560;10.062;2022-10-30T08:23:19;15.33;;;8.67;;
9972;SDS011;5027;53.560;10.062;2022-10-30T08:25:46;16.23;;;8.57;;
9972;SDS011;5027;53.560;10.062;2022-10-30T08:28:14;17.57;;;9.50;;
9972;SDS011;5027;53.560;10.062;2022-10-30T08:30:42;18.70;;;10.30;;
9972;SDS011;5027;53.560;10.062;2022-10-30T08:33:13;17.70;;;9.13;;
9972;SDS011;5027;53.560;10.062;2022-10-30T08:35:55;16.67;;;9.20;;
9972;SDS011;5027;53.560;10.062;2022-10-30T08:38:25;15.70;;;9.07;;
9972;SDS011;5027;53.560;10.062;2022-10-30T08:41:11;15.60;;;10.17;;
9972;SDS011;5027;53.560;10.062;2022-10-30T08:43:43;15.10;;;9.17;;
9972;SDS011;5027;53.560;10.062;2022-10-30T08:46:10;13.77;;;9.67;;
9972;SDS011;5027;53.560;10.062;2022-10-30T08:48:37;13.50;;;8.40;;
9972;SDS011;5027;53.560;10.062;2022-10-30T08:51:04;16.07;;;9.37;;
9972;SDS011;5027;53.560;10.062;2022-10-30T08:53:35;18.77;;;9.30;;
9972;SDS011;5027;53.560;10.062;2022-10-30T08:56:08;16.40;;;9.73;;
9972;SDS011;5027;53.560;10.062;2022-10-30T08:58:52;13.23;;;10.00;;
9972;SDS011;5027;53.560;10.062;2022-10-30T09:01:20;16.60;;;9.03;;
9972;SDS011;5027;53.560;10.062;2022-10-30T09:04:05;16.87;;;10.60;;
9972;SDS011;5027;53.560;10.062;2022-10-30T09:06:52;14.83;;;9.53;;
9972;SDS011;5027;53.560;10.062;2022-10-30T09:09:38;14.53;;;9.23;;
9972;SDS011;5027;53.560;10.062;2022-10-30T09:12:06;18.03;;;9.73;;
9972;SDS011;5027;53.560;10.062;2022-10-30T09:14:39;25.80;;;10.30;;
9972;SDS011;5027;53.560;10.062;2022-10-30T09:17:07;17.80;;;10.43;;
9972;SDS011;5027;53.560;10.062;2022-10-30T09:19:35;17.53;;;9.43;;
9972;SDS011;5027;53.560;10.062;2022-10-30T09:22:03;19.13;;;9.97;;
9972;SDS011;5027;53.560;10.062;2022-10-30T09:24:32;16.27;;;10.27;;
9972;SDS011;5027;53.560;10.062;2022-10-30T09:27:02;22.83;;;10.77;;
9972;SDS011;5027;53.560;10.062;2022-10-30T09:29:34;19.50;;;11.30;;
9972;SDS011;5027;53.560;10.062;2022-10-30T09:32:17;22.67;;;10.60;;
9972;SDS011;5027;53.560;10.062;2022-10-30T09:35:03;16.40;;;9.93;;
9972;SDS011;5027;53.560;10.062;2022-10-30T09:37:35;17.03;;;10.53;;
9972;SDS011;5027;53.560;10.062;2022-10-30T09:40:06;20.57;;;10.80;;
9972;SDS011;5027;53.560;10.062;2022-10-30T09:42:41;23.17;;;11.43;;
9972;SDS011;5027;53.560;10.062;2022-10-30T09:54:29;18.07;;;10.43;;
9972;SDS011;5027;53.560;10.062;2022-10-30T09:57:29;19.60;;;10.60;;
9972;SDS011;5027;53.560;10.062;2022-10-30T10:00:10;26.70;;;11.30;;
9972;SDS011;5027;53.560;10.062;2022-10-30T10:05:23;16.27;;;11.70;;
9972;SDS011;5027;53.560;10.062;2022-10-30T10:08:27;14.33;;;7.53;;
9972;SDS011;5027;53.560;10.062;2022-10-30T10:11:34;20.20;;;11.27;;
9972;SDS011;5027;53.560;10.062;2022-10-30T10:16:38;13.90;;;8.27;;
9972;SDS011;5027;53.560;10.062;2022-10-30T10:19:13;18.77;;;11.33;;
9972;SDS011;5027;53.560;10.062;2022-10-30T10:21:46;23.60;;;11.97;;
9972;SDS011;5027;53.560;10.062;2022-10-30T10:24:21;14.40;;;8.87;;
9972;SDS011;5027;53.560;10.062;2022-10-30T10:44:05;22.73;;;11.30;;
9972;SDS011;5027;53.560;10.062;2022-10-30T10:47:04;21.10;;;11.77;;
9972;SDS011;5027;53.560;10.062;2022-10-30T10:52:39;19.80;;;10.53;;
9972;SDS011;5027;53.560;10.062;2022-10-30T10:55:14;23.27;;;11.30;;
9972;SDS011;5027;53.560;10.062;2022-10-30T10:57:43;16.23;;;7.73;;
9972;SDS011;5027;53.560;10.062;2022-10-30T11:00:18;12.00;;;6.27;;
9972;SDS011;5027;53.560;10.062;2022-10-30T11:05:31;21.57;;;10.47;;
9972;SDS011;5027;53.560;10.062;2022-10-30T11:08:09;19.80;;;11.10;;
9972;SDS011;5027;53.560;10.062;2022-10-30T11:10:44;17.43;;;9.37;;
9972;SDS011;5027;53.560;10.062;2022-10-30T11:13:14;13.07;;;6.80;;
9972;SDS011;5027;53.560;10.062;2022-10-30T11:15:55;12.80;;;6.17;;
9972;SDS011;5027;53.560;10.062;2022-10-30T11:18:40;13.30;;;6.37;;
9972;SDS011;5027;53.560;10.062;2022-10-30T11:21:09;15.33;;;8.17;;
9972;SDS011;5027;53.560;10.062;2022-10-30T11:23:47;19.93;;;10.00;;
9972;SDS011;5027;53.560;10.062;2022-10-30T11:28:55;17.30;;;7.37;;
9972;SDS011;5027;53.560;10.062;2022-10-30T11:32:04;24.37;;;9.13;;
9972;SDS011;5027;53.560;10.062;2022-10-30T11:34:32;19.00;;;9.93;;
9972;SDS011;5027;53.560;10.062;2022-10-30T11:37:00;18.63;;;8.70;;
9972;SDS011;5027;53.560;10.062;2022-10-30T11:39:32;20.90;;;9.70;;
9972;SDS011;5027;53.560;10.062;2022-10-30T11:42:01;19.40;;;8.13;;
9972;SDS011;5027;53.560;10.062;2022-10-30T11:44:43;23.50;;;9.63;;
9972;SDS011;5027;53.560;10.062;2022-10-30T11:47:14;15.73;;;8.13;;
9972;SDS011;5027;53.560;10.062;2022-10-30T11:49:50;21.87;;;9.07;;
9972;SDS011;5027;53.560;10.062;2022-10-30T11:52:20;16.23;;;9.40;;
9972;SDS011;5027;53.560;10.062;2022-10-30T11:54:59;17.13;;;9.03;;
9972;SDS011;5027;53.560;10.062;2022-10-30T11:57:37;14.93;;;6.70;;
9972;SDS011;5027;53.560;10.062;2022-10-30T12:00:16;20.43;;;9.53;;
9972;SDS011;5027;53.560;10.062;2022-10-30T12:02:51;16.57;;;8.63;;
9972;SDS011;5027;53.560;10.062;2022-10-30T12:07:53;19.50;;;9.37;;
9972;SDS011;5027;53.560;10.062;2022-10-30T12:13:18;11.70;;;6.23;;
9972;SDS011;5027;53.560;10.062;2022-10-30T12:15:47;16.03;;;7.53;;
9972;SDS011;5027;53.560;10.062;2022-10-30T12:18:18;28.30;;;7.80;;
9972;SDS011;5027;53.560;10.062;2022-10-30T12:20:48;17.97;;;9.03;;
9972;SDS011;5027;53.560;10.062;2022-10-30T12:23:21;21.50;;;9.50;;
9972;SDS011;5027;53.560;10.062;2022-10-30T12:25:52;14.60;;;7.67;;
9972;SDS011;5027;53.560;10.062;2022-10-30T12:28:21;21.43;;;8.90;;
9972;SDS011;5027;53.560;10.062;2022-10-30T12:30:52;13.57;;;6.47;;
9972;SDS011;5027;53.560;10.062;2022-10-30T12:33:28;12.33;;;7.43;;
9972;SDS011;5027;53.560;10.062;2022-10-30T12:36:33;20.40;;;9.07;;
9972;SDS011;5027;53.560;10.062;2022-10-30T12:39:08;13.63;;;7.03;;
9972;SDS011;5027;53.560;10.062;2022-10-30T12:42:14;17.13;;;9.10;;
9972;SDS011;5027;53.560;10.062;2022-10-30T12:44:43;13.43;;;8.07;;
9972;SDS011;5027;53.560;10.062;2022-10-30T12:47:24;15.67;;;8.77;;
9972;SDS011;5027;53.560;10.062;2022-10-30T12:52:43;16.50;;;9.63;;
9972;SDS011;5027;53.560;10.062;2022-10-30T12:55:21;19.00;;;9.37;;
9972;SDS011;5027;53.560;10.062;2022-10-30T12:58:01;19.57;;;11.07;;
9972;SDS011;5027;53.560;10.062;2022-10-30T13:00:59;18.10;;;9.73;;
9972;SDS011;5027;53.560;10.062;2022-10-30T13:03:36;20.30;;;10.50;;
9972;SDS011;5027;53.560;10.062;2022-10-30T13:06:12;19.00;;;9.57;;
9972;SDS011;5027;53.560;10.062;2022-10-30T13:08:45;15.90;;;10.43;;
9972;SDS011;5027;53.560;10.062;2022-10-30T13:11:38;19.17;;;10.70;;
9972;SDS011;5027;53.560;10.062;2022-10-30T13:14:26;21.10;;;10.03;;
9972;SDS011;5027;53.560;10.062;2022-10-30T13:17:13;17.00;;;10.13;;
9972;SDS011;5027;53.560;10.062;2022-10-30T13:19:40;21.23;;;9.90;;
9972;SDS011;5027;53.560;10.062;2022-10-30T13:22:14;17.60;;;8.77;;
9972;SDS011;5027;53.560;10.062;2022-10-30T13:27:27;19.47;;;9.83;;
9972;SDS011;5027;53.560;10.062;2022-10-30T13:30:16;17.30;;;8.53;;
9972;SDS011;5027;53.560;10.062;2022-10-30T13:36:02;12.80;;;8.27;;
9972;SDS011;5027;53.560;10.062;2022-10-30T13:38:47;13.93;;;8.53;;
9972;SDS011;5027;53.560;10.062;2022-10-30T13:41:44;17.17;;;8.80;;
9972;SDS011;5027;53.560;10.062;2022-10-30T13:50:26;18.50;;;10.87;;
9972;SDS011;5027;53.560;10.062;2022-10-30T13:53:00;18.17;;;9.80;;
9972;SDS011;5027;53.560;10.062;2022-10-30T13:55:31;21.47;;;10.47;;
9972;SDS011;5027;53.560;10.062;2022-10-30T14:00:58;21.13;;;10.40;;
9972;SDS011;5027;53.560;10.062;2022-10-30T14:03:52;22.20;;;10.73;;
9972;SDS011;5027;53.560;10.062;2022-10-30T14:09:34;23.23;;;10.63;;
9972;SDS011;5027;53.560;10.062;2022-10-30T14:20:37;24.03;;;11.33;;
9972;SDS011;5027;53.560;10.062;2022-10-30T14:23:18;19.77;;;9.17;;
9972;SDS011;5027;53.560;10.062;2022-10-30T14:28:39;14.83;;;10.87;;
9972;SDS011;5027;53.560;10.062;2022-10-30T14:31:12;15.60;;;10.47;;
9972;SDS011;5027;53.560;10.062;2022-10-30T14:34:38;20.43;;;11.67;;
9972;SDS011;5027;53.560;10.062;2022-10-30T14:36:56;23.60;;;11.67;;
9972;SDS011;5027;53.560;10.062;2022-10-30T14:39:27;20.47;;;11.73;;
9972;SDS011;5027;53.560;10.062;2022-10-30T14:42:03;16.33;;;10.27;;
9972;SDS011;5027;53.560;10.062;2022-10-30T14:58:30;17.70;;;10.40;;
9972;SDS011;5027;53.560;10.062;2022-10-30T15:03:52;16.00;;;10.17;;
9972;SDS011;5027;53.560;10.062;2022-10-30T15:14:37;18.60;;;10.90;;
9972;SDS011;5027;53.560;10.062;2022-10-30T15:17:25;19.30;;;11.53;;
9972;SDS011;5027;53.560;10.062;2022-10-30T15:20:04;21.63;;;10.83;;
9972;SDS011;5027;53.560;10.062;2022-10-30T15:22:38;22.07;;;10.80;;
9972;SDS011;5027;53.560;10.062;2022-10-30T15:25:12;17.90;;;12.07;;
9972;SDS011;5027;53.560;10.062;2022-10-30T15:27:42;23.63;;;12.37;;
9972;SDS011;5027;53.560;10.062;2022-10-30T15:30:16;21.13;;;10.57;;
9972;SDS011;5027;53.560;10.062;2022-10-30T15:32:44;18.97;;;11.10;;
9972;SDS011;5027;53.560;10.062;2022-10-30T15:35:24;22.33;;;11.73;;
9972;SDS011;5027;53.560;10.062;2022-10-30T15:38:00;17.27;;;11.27;;
9972;SDS011;5027;53.560;10.062;2022-10-30T15:40:35;16.90;;;10.60;;
9972;SDS011;5027;53.560;10.062;2022-10-30T15:43:04;24.10;;;11.70;;
9972;SDS011;5027;53.560;10.062;2022-10-30T15:45:34;23.90;;;11.53;;
9972;SDS011;5027;53.560;10.062;2022-10-30T15:53:20;24.97;;;12.07;;
9972;SDS011;5027;53.560;10.062;2022-10-30T15:55:52;22.17;;;12.37;;
9972;SDS011;5027;53.560;10.062;2022-10-30T15:58:23;19.73;;;12.40;;
9972;SDS011;5027;53.560;10.062;2022-10-30T16:00:54;20.60;;;12.73;;
9972;SDS011;5027;53.560;10.062;2022-10-30T16:03:25;23.57;;;13.47;;
9972;SDS011;5027;53.560;10.062;2022-10-30T16:06:11;22.27;;;13.43;;
9972;SDS011;5027;53.560;10.062;2022-10-30T16:08:42;28.00;;;17.57;;
9972;SDS011;5027;53.560;10.062;2022-10-30T16:11:11;23.87;;;12.87;;
9972;SDS011;5027;53.560;10.062;2022-10-30T16:13:38;22.33;;;14.30;;
9972;SDS011;5027;53.560;10.062;2022-10-30T16:16:05;29.60;;;19.83;;
9972;SDS011;5027;53.560;10.062;2022-10-30T16:18:38;28.17;;;21.33;;
9972;SDS011;5027;53.560;10.062;2022-10-30T16:21:06;32.63;;;25.90;;
9972;SDS011;5027;53.560;10.062;2022-10-30T16:23:36;33.17;;;22.23;;
9972;SDS011;5027;53.560;10.062;2022-10-30T16:26:04;32.73;;;21.00;;
9972;SDS011;5027;53.560;10.062;2022-10-30T16:28:35;29.70;;;18.57;;
9972;SDS011;5027;53.560;10.062;2022-10-30T16:31:05;26.50;;;17.37;;
9972;SDS011;5027;53.560;10.062;2022-10-30T16:33:35;24.83;;;17.43;;
9972;SDS011;5027;53.560;10.062;2022-10-30T16:36:02;29.13;;;14.90;;
9972;SDS011;5027;53.560;10.062;2022-10-30T16:38:33;27.53;;;14.60;;
9972;SDS011;5027;53.560;10.062;2022-10-30T16:41:05;28.37;;;16.37;;
9972;SDS011;5027;53.560;10.062;2022-10-30T16:43:33;21.43;;;16.17;;
9972;SDS011;5027;53.560;10.062;2022-10-30T16:46:20;27.13;;;15.67;;
9972;SDS011;5027;53.560;10.062;2022-10-30T16:48:59;23.93;;;16.47;;
9972;SDS011;5027;53.560;10.062;2022-10-30T16:51:28;31.40;;;16.87;;
9972;SDS011;5027;53.560;10.062;2022-10-30T16:53:55;22.03;;;14.53;;
9972;SDS011;5027;53.560;10.062;2022-10-30T16:58:54;24.83;;;15.33;;
9972;SDS011;5027;53.560;10.062;2022-10-30T17:01:33;32.30;;;22.47;;
9972;SDS011;5027;53.560;10.062;2022-10-30T17:04:01;22.03;;;14.27;;
9972;SDS011;5027;53.560;10.062;2022-10-30T17:08:58;31.90;;;24.47;;
9972;SDS011;5027;53.560;10.062;2022-10-30T17:11:36;31.23;;;24.83;;
9972;SDS011;5027;53.560;10.062;2022-10-30T17:14:17;29.90;;;19.63;;
9972;SDS011;5027;53.560;10.062;2022-10-30T17:16:52;26.47;;;17.83;;
9972;SDS011;5027;53.560;10.062;2022-10-30T17:21:56;30.03;;;19.30;;
9972;SDS011;5027;53.560;10.062;2022-10-30T17:24:28;29.03;;;19.87;;
9972;SDS011;5027;53.560;10.062;2022-10-30T17:26:58;28.60;;;18.20;;
9972;SDS011;5027;53.560;10.062;2022-10-30T17:29:42;23.70;;;16.73;;
9972;SDS011;5027;53.560;10.062;2022-10-30T17:32:17;26.93;;;17.50;;